createdAt,value
2023-02-11T00:01:21.288Z,100079.94
2023-02-11T00:03:49.536Z,100072.00
2023-02-11T00:06:17.828Z,100078.25
2023-02-11T00:08:46.020Z,100076.69
2023-02-11T00:11:16.312Z,100063.97
2023-02-11T00:13:47.281Z,100068.16
2023-02-11T00:16:18.133Z,100068.16
2023-02-11T00:18:47.068Z,100070.81
2023-02-11T00:21:16.864Z,100069.97
2023-02-11T00:23:46.222Z,100061.22
2023-02-11T00:26:15.227Z,100060.25
2023-02-11T00:28:43.777Z,100062.78
2023-02-11T00:31:15.122Z,100058.44
2023-02-11T00:33:43.394Z,100068.06
2023-02-11T00:36:15.509Z,100067.94
2023-02-11T00:38:44.354Z,100052.22
2023-02-11T00:41:13.105Z,100058.44
2023-02-11T00:43:41.987Z,100057.63
2023-02-11T00:46:10.720Z,100058.56
2023-02-11T00:48:40.542Z,100063.00
2023-02-11T00:51:08.963Z,100059.66
2023-02-11T00:53:37.584Z,100062.28
2023-02-11T00:56:06.637Z,100054.75
2023-02-11T00:58:34.906Z,100049.47
2023-02-11T01:01:03.072Z,100037.22
2023-02-11T01:03:31.675Z,100040.72
2023-02-11T01:06:01.558Z,100030.50
2023-02-11T01:08:29.738Z,100034.94
2023-02-11T01:10:58.723Z,100021.53
2023-02-11T01:13:28.174Z,100018.03
2023-02-11T01:15:56.386Z,100010.84
2023-02-11T01:18:24.433Z,100014.44
2023-02-11T01:20:54.618Z,100020.56
2023-02-11T01:23:26.874Z,100005.69
2023-02-11T01:25:55.506Z,100005.56
2023-02-11T01:28:26.172Z,100008.34
2023-02-11T01:30:55.137Z,100008.22
2023-02-11T01:33:24.417Z,100008.34
2023-02-11T01:35:53.288Z,100005.69
2023-02-11T01:38:24.949Z,100003.31
2023-02-11T01:40:54.830Z,100013.84
2023-02-11T01:43:24.125Z,100006.41
2023-02-11T01:46:05.501Z,100012.88
2023-02-11T01:48:37.639Z,100021.66
2023-02-11T01:51:10.595Z,100023.56
2023-02-11T01:53:57.507Z,100019.25
2023-02-11T01:56:45.429Z,100007.97
2023-02-11T01:59:19.356Z,100009.06
2023-02-11T02:01:52.394Z,100014.56
2023-02-11T02:04:21.462Z,100009.53
2023-02-11T02:06:54.671Z,100006.19
2023-02-11T02:09:29.205Z,100001.63
2023-02-11T02:11:57.685Z,99993.59
2023-02-11T02:14:26.606Z,99994.91
2023-02-11T02:16:54.542Z,99998.25
2023-02-11T02:19:50.288Z,100000.78
2023-02-11T02:22:46.677Z,99992.75
2023-02-11T02:25:36.642Z,99989.63
2023-02-11T02:28:21.686Z,99993.69
2023-02-11T02:31:15.282Z,99989.84
2023-02-11T02:33:51.299Z,99975.44
2023-02-11T02:36:24.758Z,99960.69
2023-02-11T02:38:58.494Z,99953.97
2023-02-11T02:41:30.718Z,99956.47
2023-02-11T02:43:58.964Z,99946.75
2023-02-11T02:46:30.624Z,99937.88
2023-02-11T02:49:01.111Z,99939.81
2023-02-11T02:51:58.282Z,99936.91
2023-02-11T02:54:51.135Z,99939.19
2023-02-11T02:57:33.791Z,99936.41
2023-02-11T03:00:14.051Z,99932.44
2023-02-11T03:02:53.601Z,99938.31
2023-02-11T03:05:32.506Z,99928.28
2023-02-11T03:08:08.486Z,99936.81
2023-02-11T03:10:40.010Z,99922.75
2023-02-11T03:13:08.945Z,99920.97
2023-02-11T03:15:45.540Z,99918.91
2023-02-11T03:18:17.116Z,99917.69
2023-02-11T03:20:50.695Z,99919.22
2023-02-11T03:23:23.816Z,99920.97
2023-02-11T03:25:57.077Z,99918.59
2023-02-11T03:28:32.516Z,99917.50
2023-02-11T03:31:11.324Z,99919.81
2023-02-11T03:33:44.911Z,99911.91
2023-02-11T03:36:19.651Z,99923.63
2023-02-11T03:38:51.870Z,99920.16
2023-02-11T03:41:24.934Z,99927.94
2023-02-11T03:43:55.466Z,99924.34
2023-02-11T03:46:27.119Z,99926.59
2023-02-11T03:48:57.994Z,99923.94
2023-02-11T03:51:30.825Z,99931.50
2023-02-11T03:54:02.398Z,99933.75
2023-02-11T03:56:34.755Z,99934.84
2023-02-11T03:59:02.745Z,99938.72
2023-02-11T04:01:30.790Z,99940.19
2023-02-11T04:03:59.338Z,99943.16
2023-02-11T04:06:28.762Z,99942.44
2023-02-11T04:08:56.999Z,99939.09
2023-02-11T04:11:25.308Z,99935.47
2023-02-11T04:13:53.276Z,99944.25
2023-02-11T04:16:21.779Z,99930.06
2023-02-11T04:18:49.867Z,99940.50
2023-02-11T04:21:17.955Z,99946.50
2023-02-11T04:23:47.644Z,99938.72
2023-02-11T04:26:15.695Z,99941.94
2023-02-11T04:28:43.584Z,99939.16
2023-02-11T04:31:13.202Z,99945.88
2023-02-11T04:33:41.370Z,99939.88
2023-02-11T04:36:09.732Z,99936.84
2023-02-11T04:38:38.131Z,99939.09
2023-02-11T04:41:07.453Z,99936.31
2023-02-11T04:43:35.555Z,99936.78
2023-02-11T04:46:03.690Z,99935.56
2023-02-11T04:48:31.709Z,99933.50
2023-02-11T04:51:00.193Z,99924.34
2023-02-11T04:53:28.507Z,99924.88
2023-02-11T04:55:56.645Z,99931.19
2023-02-11T04:58:26.437Z,99933.31
2023-02-11T05:00:54.644Z,99931.94
2023-02-11T05:03:22.612Z,99909.69
2023-02-11T05:05:51.531Z,99906.19
2023-02-11T05:08:21.525Z,99913.59
2023-02-11T05:10:49.478Z,99904.44
2023-02-11T05:13:17.850Z,99901.53
2023-02-11T05:15:47.168Z,99890.69
2023-02-11T05:18:15.615Z,99887.50
2023-02-11T05:20:43.916Z,99889.88
2023-02-11T05:23:11.810Z,99888.38
2023-02-11T05:25:40.001Z,99876.13
2023-02-11T05:28:08.455Z,99871.41
2023-02-11T05:30:36.503Z,99868.75
2023-02-11T05:33:06.373Z,99869.44
2023-02-11T05:35:34.739Z,99876.69
2023-02-11T05:38:02.654Z,99881.13
2023-02-11T05:40:30.617Z,99876.69
2023-02-11T05:42:59.560Z,99882.81
2023-02-11T05:45:27.816Z,99870.00
2023-02-11T05:47:56.387Z,99864.84
2023-02-11T05:50:26.903Z,99866.53
2023-02-11T05:52:55.192Z,99870.44
2023-02-11T05:55:23.820Z,99869.03
2023-02-11T05:57:52.233Z,99864.72
2023-02-11T06:00:20.817Z,99882.56
2023-02-11T06:02:49.995Z,99881.59
2023-02-11T06:05:18.370Z,99896.50
2023-02-11T06:07:47.839Z,99888.69
2023-02-11T06:10:16.539Z,99898.44
2023-02-11T06:12:44.898Z,99905.69
2023-02-11T06:15:13.395Z,99902.34
2023-02-11T06:17:41.827Z,99901.19
2023-02-11T06:20:11.432Z,99895.66
2023-02-11T06:22:39.657Z,99902.06
2023-02-11T06:25:11.526Z,99900.66
2023-02-11T06:27:40.401Z,99898.13
2023-02-11T06:30:09.751Z,99894.78
2023-02-11T06:32:46.153Z,99895.19
2023-02-11T06:35:15.453Z,99889.91
2023-02-11T06:37:44.289Z,99897.56
2023-02-11T06:40:14.365Z,99889.38
2023-02-11T06:42:42.744Z,99895.63
2023-02-11T06:45:12.240Z,99900.09
2023-02-11T06:47:41.303Z,99897.28
2023-02-11T06:50:12.114Z,99904.38
2023-02-11T06:52:40.115Z,99906.03
2023-02-11T06:55:08.703Z,99901.72
2023-02-11T06:57:38.540Z,99904.94
2023-02-11T07:00:07.595Z,99910.94
2023-02-11T07:02:36.247Z,99909.13
2023-02-11T07:05:04.459Z,99914.56
2023-02-11T07:07:34.199Z,99905.41
2023-02-11T07:10:03.295Z,99908.56
2023-02-11T07:12:31.622Z,99900.38
2023-02-11T07:15:00.858Z,99908.03
2023-02-11T07:17:28.712Z,99901.75
2023-02-11T07:19:57.108Z,99895.22
2023-02-11T07:22:25.300Z,99890.50
2023-02-11T07:24:53.390Z,99893.56
2023-02-11T07:27:21.818Z,99892.31
2023-02-11T07:29:50.093Z,99889.41
2023-02-11T07:32:19.476Z,99902.91
2023-02-11T07:34:48.554Z,99898.03
2023-02-11T07:37:16.898Z,99907.25
2023-02-11T07:39:44.804Z,99901.53
2023-02-11T07:42:13.271Z,99891.06
2023-02-11T07:44:41.290Z,99894.84
2023-02-11T07:47:09.334Z,99896.78
2023-02-11T07:49:39.173Z,99886.56
2023-02-11T07:52:07.095Z,99892.00
2023-02-11T07:54:35.013Z,99893.81
2023-02-11T07:57:03.920Z,99887.09
2023-02-11T07:59:31.903Z,99884.44
2023-02-11T08:02:00.204Z,99886.91
2023-02-11T08:04:28.906Z,99897.34
2023-02-11T08:06:59.312Z,99889.06
2023-02-11T08:09:27.270Z,99886.19
2023-02-11T08:11:55.551Z,99885.88
2023-02-11T08:14:25.284Z,99894.47
2023-02-11T08:16:53.608Z,99911.47
2023-02-11T08:19:22.319Z,99902.03
2023-02-11T08:21:51.224Z,99899.63
2023-02-11T08:24:21.194Z,99905.72
2023-02-11T08:26:49.640Z,99910.53
2023-02-11T08:29:18.686Z,99922.53
2023-02-11T08:31:49.069Z,99914.41
2023-02-11T08:34:19.407Z,99909.78
2023-02-11T08:36:48.650Z,99905.84
2023-02-11T08:39:20.494Z,99905.84
2023-02-11T08:41:51.976Z,99899.69
2023-02-11T08:44:21.698Z,99897.72
2023-02-11T08:46:50.959Z,99893.41
2023-02-11T08:49:19.626Z,99886.25
2023-02-11T08:51:48.000Z,99886.75
2023-02-11T08:54:16.746Z,99889.97
2023-02-11T08:56:46.806Z,99895.03
2023-02-11T08:59:18.121Z,99905.72
2023-02-11T09:01:47.174Z,99908.22
2023-02-11T09:04:15.675Z,99904.94
2023-02-11T09:06:44.414Z,99911.00
2023-02-11T09:09:14.207Z,99888.78
2023-02-11T09:11:43.656Z,99893.34
2023-02-11T09:14:20.365Z,99881.44
2023-02-11T09:16:49.942Z,99876.31
2023-02-11T09:19:19.172Z,99868.00
2023-02-11T09:21:47.851Z,99861.88
2023-02-11T09:24:16.873Z,99855.03
2023-02-11T09:26:45.204Z,99867.88
2023-02-11T09:29:13.569Z,99863.19
2023-02-11T09:31:43.518Z,99858.53
2023-02-11T09:34:12.920Z,99852.31
2023-02-11T09:36:42.155Z,99859.25
2023-02-11T09:39:13.648Z,99864.59
2023-02-11T09:42:04.143Z,99877.28
2023-02-11T09:44:34.689Z,99881.78
2023-02-11T09:47:06.688Z,99882.63
2023-02-11T09:49:41.414Z,99887.97
2023-02-11T09:52:20.600Z,99888.47
2023-02-11T09:54:56.228Z,99900.81
2023-02-11T09:57:29.278Z,99900.97
2023-02-11T09:59:58.331Z,99902.31
2023-02-11T10:02:38.113Z,99907.94
2023-02-11T10:05:22.889Z,99900.72
2023-02-11T10:08:02.176Z,99902.06
2023-02-11T10:10:43.695Z,99898.53
2023-02-11T10:13:32.124Z,99902.03
2023-02-11T10:16:09.598Z,99903.09
2023-02-11T10:19:19.475Z,99896.66
2023-02-11T10:22:00.412Z,99905.31
2023-02-11T10:24:29.933Z,99905.38
2023-02-11T10:26:57.852Z,99905.03
2023-02-11T10:29:37.203Z,99917.03
2023-02-11T10:32:12.426Z,99904.50
2023-02-11T10:34:42.920Z,99903.13
2023-02-11T10:37:13.945Z,99898.56
2023-02-11T10:39:42.755Z,99904.19
2023-02-11T10:42:13.641Z,99897.59
2023-02-11T10:44:48.809Z,99886.63
2023-02-11T10:47:22.568Z,99885.13
2023-02-11T10:49:52.293Z,99889.53
2023-02-11T10:52:23.752Z,99880.38
2023-02-11T10:55:00.463Z,99883.41
2023-02-11T10:57:32.646Z,99873.66
2023-02-11T11:00:03.778Z,99871.38
2023-02-11T11:02:34.724Z,99857.25
2023-02-11T11:05:08.023Z,99855.66
2023-02-11T11:07:37.908Z,99855.03
2023-02-11T11:10:26.461Z,99855.13
2023-02-11T11:12:54.323Z,99856.13
2023-02-11T11:15:24.626Z,99863.06
2023-02-11T11:18:21.582Z,99859.47
2023-02-11T11:20:59.727Z,99860.56
2023-02-11T11:23:29.760Z,99860.56
2023-02-11T11:26:07.182Z,99854.56
2023-02-11T11:28:41.648Z,99849.88
2023-02-11T11:31:15.950Z,99843.13
2023-02-11T11:33:45.990Z,99851.53
2023-02-11T11:36:21.195Z,99852.91
2023-02-11T11:38:54.013Z,99851.44
2023-02-11T11:41:26.159Z,99848.19
2023-02-11T11:43:59.602Z,99843.50
2023-02-11T11:46:31.353Z,99841.28
2023-02-11T11:49:19.628Z,99839.03
2023-02-11T11:51:56.178Z,99838.56
2023-02-11T11:54:29.323Z,99835.28
2023-02-11T11:57:01.964Z,99830.47
2023-02-11T11:59:30.694Z,99832.13
2023-02-11T12:02:19.433Z,99828.88
2023-02-11T12:05:04.003Z,99838.31
2023-02-11T12:07:47.844Z,99841.72
2023-02-11T12:10:39.143Z,99837.69
2023-02-11T12:13:21.858Z,99843.31
2023-02-11T12:15:59.199Z,99842.84
2023-02-11T12:19:00.313Z,99846.47
2023-02-11T12:21:43.298Z,99851.47
2023-02-11T12:24:29.601Z,99843.25
2023-02-11T12:27:04.573Z,99837.44
2023-02-11T12:29:43.713Z,99839.34
2023-02-11T12:32:27.858Z,99844.72
2023-02-11T12:35:17.147Z,99840.56
2023-02-11T12:37:58.288Z,99841.00
2023-02-11T12:40:38.987Z,99838.97
2023-02-11T12:43:19.741Z,99843.50
2023-02-11T12:46:02.683Z,99835.28
2023-02-11T12:48:42.608Z,99837.97
2023-02-11T12:51:24.355Z,99835.72
2023-02-11T12:54:19.203Z,99829.91
2023-02-11T12:56:53.679Z,99823.44
2023-02-11T12:59:34.835Z,99821.94
2023-02-11T13:02:10.786Z,99812.28
2023-02-11T13:04:42.825Z,99816.00
2023-02-11T13:07:16.798Z,99810.41
2023-02-11T13:09:50.704Z,99809.59
2023-02-11T13:12:38.575Z,99805.69
2023-02-11T13:15:12.041Z,99798.81
2023-02-11T13:17:49.011Z,99794.81
2023-02-11T13:20:27.602Z,99792.84
2023-02-11T13:23:03.697Z,99800.19
2023-02-11T13:25:39.121Z,99794.22
2023-02-11T13:28:21.931Z,99789.88
2023-02-11T13:30:58.056Z,99790.97
2023-02-11T13:33:34.249Z,99794.78
2023-02-11T13:36:16.413Z,99788.41
2023-02-11T13:38:57.932Z,99784.59
2023-02-11T13:41:31.022Z,99794.34
2023-02-11T13:44:03.308Z,99785.66
2023-02-11T13:46:51.305Z,99780.88
2023-02-11T13:49:22.260Z,99779.59
2023-02-11T13:51:51.501Z,99781.91
2023-02-11T13:54:27.596Z,99786.09
2023-02-11T13:57:32.789Z,99777.88
2023-02-11T14:00:06.182Z,99778.00
2023-02-11T14:02:54.160Z,99782.97
2023-02-11T14:05:45.677Z,99773.06
2023-02-11T14:08:49.247Z,99762.53
2023-02-11T14:11:48.549Z,99770.91
2023-02-11T14:14:36.575Z,99767.66
2023-02-11T14:17:35.958Z,99766.06
2023-02-11T14:20:25.698Z,99776.78
2023-02-11T14:22:55.036Z,99767.09
2023-02-11T14:25:25.548Z,99766.72
2023-02-11T14:27:59.236Z,99763.19
2023-02-11T14:30:36.460Z,99766.50
2023-02-11T14:33:38.002Z,99776.53
2023-02-11T14:36:17.696Z,99780.72
2023-02-11T14:39:00.169Z,99794.66
2023-02-11T14:41:31.399Z,99788.38
2023-02-11T14:44:04.770Z,99788.31
2023-02-11T14:46:34.618Z,99787.69
2023-02-11T14:49:06.352Z,99787.19
2023-02-11T14:51:37.580Z,99788.84
2023-02-11T14:54:15.206Z,99797.94
2023-02-11T14:56:44.645Z,99802.09
2023-02-11T14:59:19.249Z,99797.88
2023-02-11T15:01:50.915Z,99797.44
2023-02-11T15:04:28.114Z,99795.63
2023-02-11T15:06:59.706Z,99802.53
2023-02-11T15:09:35.095Z,99804.06
2023-02-11T15:12:03.719Z,99803.22
2023-02-11T15:14:33.853Z,99798.25
2023-02-11T15:17:06.128Z,99804.88
2023-02-11T15:19:37.688Z,99805.91
2023-02-11T15:22:11.152Z,99801.31
2023-02-11T15:24:40.510Z,99809.06
2023-02-11T15:27:15.021Z,99812.50
2023-02-11T15:29:47.719Z,99814.50
2023-02-11T15:32:22.191Z,99819.16
2023-02-11T15:34:53.505Z,99829.53
2023-02-11T15:37:23.959Z,99824.53
2023-02-11T15:39:54.062Z,99827.81
2023-02-11T15:42:24.937Z,99823.41
2023-02-11T15:45:13.117Z,99818.53
2023-02-11T15:47:43.724Z,99826.69
2023-02-11T15:50:24.020Z,99821.72
2023-02-11T15:52:53.694Z,99825.59
2023-02-11T15:55:22.148Z,99821.56
2023-02-11T15:57:55.697Z,99832.84
2023-02-11T16:00:26.210Z,99836.81
2023-02-11T16:02:54.938Z,99837.19
2023-02-11T16:05:36.513Z,99843.56
2023-02-11T16:08:21.121Z,99850.88
2023-02-11T16:10:58.878Z,99842.13
2023-02-11T16:13:30.276Z,99842.13
2023-02-11T16:16:01.922Z,99848.03
2023-02-11T16:18:39.621Z,99855.41
2023-02-11T16:21:17.340Z,99853.56
2023-02-11T16:23:52.658Z,99854.66
2023-02-11T16:26:28.943Z,99847.19
2023-02-11T16:29:09.184Z,99858.44
2023-02-11T16:31:39.649Z,99865.91
2023-02-11T16:34:14.943Z,99870.78
2023-02-11T16:36:45.084Z,99871.16
2023-02-11T16:39:14.397Z,99872.53
2023-02-11T16:41:42.377Z,99875.69
2023-02-11T16:44:10.710Z,99870.13
2023-02-11T16:46:39.107Z,99869.28
2023-02-11T16:49:18.206Z,99876.75
2023-02-11T16:51:49.849Z,99877.13
2023-02-11T16:54:19.756Z,99879.22
2023-02-11T16:56:47.941Z,99879.03
2023-02-11T16:59:16.143Z,99879.91
2023-02-11T17:01:45.286Z,99881.50
2023-02-11T17:04:18.773Z,99885.84
2023-02-11T17:06:49.350Z,99890.91
2023-02-11T17:09:20.720Z,99886.91
2023-02-11T17:11:49.893Z,99884.13
2023-02-11T17:14:18.693Z,99887.97
2023-02-11T17:16:49.502Z,99889.34
2023-02-11T17:19:21.162Z,99889.88
2023-02-11T17:21:51.931Z,99883.22
2023-02-11T17:24:21.038Z,99881.06
2023-02-11T17:26:50.340Z,99880.22
2023-02-11T17:29:21.835Z,99887.59
2023-02-11T17:31:51.589Z,99884.44
2023-02-11T17:34:20.365Z,99884.63
2023-02-11T17:36:49.041Z,99891.97
2023-02-11T17:39:19.290Z,99895.66
2023-02-11T17:41:47.187Z,99890.66
2023-02-11T17:44:16.723Z,99898.69
2023-02-11T17:46:45.184Z,99902.38
2023-02-11T17:49:13.184Z,99901.72
2023-02-11T17:51:42.226Z,99906.22
2023-02-11T17:54:13.209Z,99912.56
2023-02-11T17:56:43.850Z,99913.41
2023-02-11T17:59:13.213Z,99926.78
2023-02-11T18:01:42.937Z,99929.63
2023-02-11T18:04:15.974Z,99918.28
2023-02-11T18:06:44.274Z,99929.13
2023-02-11T18:09:12.810Z,99923.13
2023-02-11T18:11:42.780Z,99929.50
2023-02-11T18:14:11.853Z,99923.31
2023-02-11T18:16:43.177Z,99927.00
2023-02-11T18:19:12.521Z,99926.31
2023-02-11T18:21:40.728Z,99925.66
2023-02-11T18:24:08.905Z,99918.66
2023-02-11T18:26:44.377Z,99924.00
2023-02-11T18:29:13.455Z,99919.00
2023-02-11T18:31:41.448Z,99920.84
2023-02-11T18:34:10.713Z,99920.22
2023-02-11T18:36:39.535Z,99923.88
2023-02-11T18:39:07.873Z,99925.56
2023-02-11T18:41:38.094Z,99929.25
2023-02-11T18:44:07.906Z,99923.06
2023-02-11T18:46:35.947Z,99922.88
2023-02-11T18:49:04.254Z,99939.25
2023-02-11T18:51:32.717Z,99940.75
2023-02-11T18:54:01.723Z,99935.75
2023-02-11T18:56:29.740Z,99932.75
2023-02-11T18:59:01.149Z,99937.25
2023-02-11T19:01:33.489Z,99934.91
2023-02-11T19:04:04.452Z,99930.75
2023-02-11T19:06:35.283Z,99925.09
2023-02-11T19:09:07.636Z,99935.44
2023-02-11T19:11:55.861Z,99946.97
2023-02-11T19:14:26.637Z,99934.59
2023-02-11T19:16:57.981Z,99939.28
2023-02-11T19:19:28.771Z,99935.59
2023-02-11T19:21:58.416Z,99947.78
2023-02-11T19:24:29.324Z,99938.44
2023-02-11T19:27:00.173Z,99941.97
2023-02-11T19:29:28.638Z,99941.97
2023-02-11T19:31:59.264Z,99940.13
2023-02-11T19:34:27.583Z,99931.44
2023-02-11T19:36:56.840Z,99934.28
2023-02-11T19:39:25.544Z,99930.94
2023-02-11T19:41:53.581Z,99939.97
2023-02-11T19:44:21.571Z,99931.94
2023-02-11T19:46:53.163Z,99927.63
2023-02-11T19:49:25.988Z,99928.63
2023-02-11T19:51:55.899Z,99919.94
2023-02-11T19:54:23.968Z,99933.28
2023-02-11T19:56:51.911Z,99931.47
2023-02-11T19:59:21.685Z,99925.28
2023-02-11T20:01:50.130Z,99935.31
2023-02-11T20:04:18.374Z,99943.97
2023-02-11T20:06:49.550Z,99945.81
2023-02-11T20:09:17.667Z,99934.47
2023-02-11T20:11:45.533Z,99938.81
2023-02-11T20:14:15.332Z,99940.81
2023-02-11T20:16:49.236Z,99948.00
2023-02-11T20:19:20.679Z,99948.00
2023-02-11T20:21:53.734Z,99937.81
2023-02-11T20:24:22.806Z,99937.81
2023-02-11T20:26:55.274Z,99938.00
2023-02-11T20:29:23.952Z,99935.31
2023-02-11T20:31:52.544Z,99932.81
2023-02-11T20:34:21.913Z,99934.81
2023-02-11T20:36:52.861Z,99935.84
2023-02-11T20:39:23.056Z,99935.16
2023-02-11T20:41:51.860Z,99938.69
2023-02-11T20:44:22.493Z,99931.84
2023-02-11T20:46:51.128Z,99933.50
2023-02-11T20:49:22.316Z,99932.50
2023-02-11T20:51:53.752Z,99944.00
2023-02-11T20:54:23.471Z,99943.53
2023-02-11T20:56:52.322Z,99954.38
2023-02-11T20:59:21.149Z,99951.03
2023-02-11T21:01:50.609Z,99954.72
2023-02-11T21:04:20.619Z,99961.22
2023-02-11T21:06:53.655Z,99956.22
2023-02-11T21:09:24.618Z,99953.72
2023-02-11T21:11:54.339Z,99956.72
2023-02-11T21:14:26.752Z,99957.56
2023-02-11T21:16:55.040Z,99957.72
2023-02-11T21:19:23.236Z,99957.72
2023-02-11T21:21:55.440Z,99957.22
2023-02-11T21:24:23.804Z,99962.56
2023-02-11T21:26:51.678Z,99958.88
2023-02-11T21:29:19.698Z,99971.25
2023-02-11T21:31:48.305Z,99965.06
2023-02-11T21:34:16.332Z,99970.06
2023-02-11T21:36:45.751Z,99973.25
2023-02-11T21:39:15.244Z,99974.91
2023-02-11T21:41:43.493Z,99975.75
2023-02-11T21:44:11.928Z,99972.06
2023-02-11T21:46:40.035Z,99962.38
2023-02-11T21:49:08.080Z,99974.25
2023-02-11T21:51:36.778Z,99976.25
2023-02-11T21:54:05.037Z,99985.25
2023-02-11T21:56:35.506Z,99978.25
2023-02-11T21:59:03.835Z,99981.75
2023-02-11T22:01:35.395Z,99974.06
2023-02-11T22:04:04.219Z,99979.56
2023-02-11T22:06:35.213Z,99971.75
2023-02-11T22:09:05.074Z,99979.44
2023-02-11T22:11:34.916Z,99974.28
2023-02-11T22:14:03.269Z,99984.13
2023-02-11T22:16:32.657Z,99990.28
2023-02-11T22:19:02.380Z,99981.94
2023-02-11T22:21:30.618Z,99982.63
2023-02-11T22:24:00.853Z,99993.47
2023-02-11T22:26:29.519Z,99994.13
2023-02-11T22:28:58.935Z,99993.44
2023-02-11T22:31:30.042Z,99995.94
2023-02-11T22:33:59.230Z,99996.78
2023-02-11T22:36:30.558Z,100002.13
2023-02-11T22:39:02.336Z,99989.63
2023-02-11T22:41:33.507Z,99984.44
2023-02-11T22:44:02.816Z,99979.94
2023-02-11T22:46:31.152Z,99981.59
2023-02-11T22:48:59.122Z,99980.78
2023-02-11T22:51:28.727Z,99986.09
2023-02-11T22:53:58.458Z,99985.94
2023-02-11T22:56:27.545Z,99983.44
2023-02-11T22:58:58.312Z,99981.59
2023-02-11T23:01:27.928Z,99982.59
2023-02-11T23:03:56.035Z,99980.28
2023-02-11T23:06:24.054Z,99978.09
2023-02-11T23:08:52.675Z,99976.94
2023-02-11T23:11:21.871Z,99974.41
2023-02-11T23:13:52.412Z,99977.09
2023-02-11T23:16:22.406Z,99972.59
2023-02-11T23:18:52.980Z,99983.09
2023-02-11T23:21:23.648Z,99974.25
2023-02-11T23:23:57.280Z,99980.75
2023-02-11T23:26:26.586Z,99974.75
2023-02-11T23:28:55.016Z,99983.59
2023-02-11T23:31:25.842Z,99982.25
2023-02-11T23:33:55.671Z,99983.94
2023-02-11T23:36:24.196Z,99983.59
2023-02-11T23:38:55.519Z,99990.78
2023-02-11T23:41:23.852Z,99984.75
2023-02-11T23:43:52.821Z,99987.28
2023-02-11T23:46:22.347Z,99989.94
2023-02-11T23:48:51.127Z,99987.44
2023-02-11T23:51:21.039Z,99987.59
2023-02-11T23:53:50.414Z,99994.59
2023-02-11T23:56:20.408Z,99995.44
2023-02-11T23:58:49.788Z,100006.94
